createdAt,value
2018-03-15T00:00:51.237Z,65.18
2018-03-15T00:03:23.861Z,66.01
2018-03-15T00:05:50.197Z,67.49
2018-03-15T00:08:16.488Z,69.07
2018-03-15T00:10:43.568Z,70.38
2018-03-15T00:13:09.878Z,70.40
2018-03-15T00:15:36.914Z,69.36
2018-03-15T00:18:03.254Z,68.71
2018-03-15T00:20:30.344Z,68.26
2018-03-15T00:22:56.646Z,67.58
2018-03-15T00:25:23.672Z,67.95
2018-03-15T00:27:50.894Z,67.96
2018-03-15T00:30:17.260Z,68.05
2018-03-15T00:32:43.585Z,67.45
2018-03-15T00:35:09.905Z,67.52
2018-03-15T00:37:36.229Z,67.39
2018-03-15T00:40:02.669Z,66.82
2018-03-15T00:42:28.963Z,66.97
2018-03-15T00:44:55.265Z,66.91
2018-03-15T00:47:21.587Z,67.09
2018-03-15T00:49:47.923Z,67.19
2018-03-15T00:52:14.220Z,66.79
2018-03-15T00:54:40.551Z,66.43
2018-03-15T00:57:06.842Z,66.46
2018-03-15T00:59:33.172Z,66.72
2018-03-15T01:02:00.018Z,66.84
2018-03-15T01:04:26.378Z,66.69
2018-03-15T01:06:52.657Z,66.48
2018-03-15T01:09:19.704Z,66.21
2018-03-15T01:11:46.018Z,66.57
2018-03-15T01:14:12.404Z,66.67
2018-03-15T01:16:38.727Z,66.73
2018-03-15T01:19:05.040Z,66.62
2018-03-15T01:21:31.374Z,66.54
2018-03-15T01:23:57.751Z,66.57
2018-03-15T01:26:24.053Z,66.60
2018-03-15T01:28:50.370Z,66.79
2018-03-15T01:31:16.645Z,66.96
2018-03-15T01:33:42.975Z,67.35
2018-03-15T01:36:09.334Z,67.42
2018-03-15T01:38:36.387Z,67.73
2018-03-15T01:41:03.415Z,68.43
2018-03-15T01:43:29.758Z,68.95
2018-03-15T01:45:56.792Z,69.38
2018-03-15T01:48:23.084Z,69.72
2018-03-15T01:50:49.453Z,69.74
2018-03-15T01:53:15.738Z,69.91
2018-03-15T01:55:42.019Z,70.06
2018-03-15T01:58:08.375Z,70.25
2018-03-15T02:00:35.445Z,70.38
2018-03-15T02:03:01.836Z,70.33
2018-03-15T02:05:28.874Z,70.67
2018-03-15T02:07:55.205Z,70.41
2018-03-15T02:10:21.502Z,69.70
2018-03-15T02:12:47.837Z,69.94
2018-03-15T02:15:14.157Z,70.48
2018-03-15T02:17:40.501Z,70.54
2018-03-15T02:20:06.821Z,70.69
2018-03-15T02:22:33.119Z,70.82
2018-03-15T02:24:59.443Z,70.82
2018-03-15T02:27:26.517Z,71.32
2018-03-15T02:29:52.795Z,71.46
2018-03-15T02:32:19.099Z,71.72
2018-03-15T02:34:45.433Z,71.90
2018-03-15T02:37:11.758Z,72.37
2018-03-15T02:39:38.068Z,72.68
2018-03-15T02:42:04.415Z,72.75
2018-03-15T02:44:30.760Z,72.97
2018-03-15T02:46:57.050Z,73.11
2018-03-15T02:49:23.384Z,73.49
2018-03-15T02:51:49.725Z,73.74
2018-03-15T02:54:16.059Z,73.83
2018-03-15T02:56:42.372Z,74.12
2018-03-15T02:59:08.720Z,74.33
2018-03-15T03:01:35.078Z,74.41
2018-03-15T03:04:01.353Z,74.72
2018-03-15T03:06:28.408Z,74.90
2018-03-15T03:08:55.473Z,74.99
2018-03-15T03:11:21.835Z,75.11
2018-03-15T03:13:48.200Z,75.05
2018-03-15T03:16:14.529Z,75.20
2018-03-15T03:18:40.901Z,75.41
2018-03-15T03:21:07.192Z,75.17
2018-03-15T03:23:33.487Z,75.34
2018-03-15T03:25:59.821Z,75.44
2018-03-15T03:28:26.126Z,75.37
2018-03-15T03:30:52.451Z,75.44
2018-03-15T03:33:18.799Z,75.54
2018-03-15T03:35:45.138Z,75.84
2018-03-15T03:38:11.484Z,75.60
2018-03-15T03:40:37.840Z,75.96
2018-03-15T03:43:04.195Z,76.04
2018-03-15T03:45:31.286Z,76.09
2018-03-15T03:47:57.580Z,76.02
2018-03-15T03:50:24.628Z,76.28
2018-03-15T03:52:51.683Z,75.49
2018-03-15T03:55:18.022Z,75.64
2018-03-15T03:57:44.323Z,75.88
2018-03-15T04:00:10.642Z,75.73
2018-03-15T04:02:36.975Z,75.82
2018-03-15T04:05:03.305Z,76.18
2018-03-15T04:07:29.634Z,76.25
2018-03-15T04:09:55.993Z,76.19
2018-03-15T04:12:23.088Z,76.27
2018-03-15T04:14:49.413Z,76.33
2018-03-15T04:17:15.783Z,76.23
2018-03-15T04:19:42.183Z,76.08
2018-03-15T04:22:08.464Z,76.55
2018-03-15T04:24:35.528Z,76.53
2018-03-15T04:27:01.856Z,76.38
2018-03-15T04:29:28.154Z,76.57
2018-03-15T04:31:54.489Z,76.28
2018-03-15T04:34:20.774Z,76.30
2018-03-15T04:36:47.144Z,76.21
2018-03-15T04:39:13.506Z,75.69
2018-03-15T04:41:40.630Z,75.76
2018-03-15T04:44:07.088Z,75.57
2018-03-15T04:46:34.212Z,74.99
2018-03-15T04:49:00.607Z,74.29
2018-03-15T04:51:27.003Z,75.08
2018-03-15T04:53:54.124Z,75.80
2018-03-15T04:56:20.484Z,76.35
2018-03-15T04:58:47.574Z,76.43
2018-03-15T05:01:13.906Z,76.68
2018-03-15T05:03:40.270Z,76.69
2018-03-15T05:06:06.557Z,76.67
2018-03-15T05:08:33.749Z,76.46
2018-03-15T05:11:00.052Z,76.61
2018-03-15T05:13:26.344Z,76.86
2018-03-15T05:15:52.674Z,77.10
2018-03-15T05:18:19.078Z,76.96
2018-03-15T05:20:46.148Z,77.14
2018-03-15T05:23:13.224Z,77.17
2018-03-15T05:25:39.592Z,76.71
2018-03-15T05:28:05.882Z,76.71
2018-03-15T05:30:32.252Z,76.97
2018-03-15T05:32:58.644Z,76.55
2018-03-15T05:35:24.940Z,76.23
2018-03-15T05:37:52.021Z,75.85
2018-03-15T05:40:18.348Z,75.96
2018-03-15T05:42:44.710Z,76.07
2018-03-15T05:45:11.002Z,75.86
2018-03-15T05:47:38.089Z,75.78
2018-03-15T05:50:05.705Z,75.62
2018-03-15T05:52:33.587Z,75.35
2018-03-15T05:54:59.918Z,75.48
2018-03-15T05:57:26.298Z,75.52
2018-03-15T05:59:52.654Z,75.40
2018-03-15T06:02:19.716Z,74.83
2018-03-15T06:04:46.824Z,74.62
2018-03-15T06:07:13.127Z,74.29
2018-03-15T06:09:39.472Z,74.31
2018-03-15T06:12:05.772Z,73.85
2018-03-15T06:14:32.109Z,73.37
2018-03-15T06:16:58.447Z,72.93
2018-03-15T06:19:24.770Z,72.68
2018-03-15T06:21:51.144Z,72.18
2018-03-15T06:24:17.417Z,71.53
2018-03-15T06:26:44.436Z,71.01
2018-03-15T06:29:10.740Z,70.60
2018-03-15T06:31:37.808Z,69.94
2018-03-15T06:34:04.155Z,69.69
2018-03-15T06:36:30.479Z,68.96
2018-03-15T06:38:56.775Z,68.02
2018-03-15T06:41:23.056Z,67.68
2018-03-15T06:43:50.137Z,66.80
2018-03-15T06:46:16.434Z,66.04
2018-03-15T06:48:43.639Z,65.53
2018-03-15T06:51:09.947Z,64.88
2018-03-15T06:53:36.288Z,64.51
2018-03-15T06:56:02.618Z,63.63
2018-03-15T06:58:28.974Z,63.52
2018-03-15T07:00:55.308Z,63.96
2018-03-15T07:03:21.585Z,63.31
2018-03-15T07:05:48.629Z,62.11
2018-03-15T07:08:15.680Z,61.83
2018-03-15T07:10:42.730Z,61.83
2018-03-15T07:13:09.794Z,61.51
2018-03-15T07:15:36.087Z,61.09
2018-03-15T07:18:02.390Z,60.46
2018-03-15T07:20:28.940Z,60.14
2018-03-15T07:22:55.243Z,60.06
2018-03-15T07:25:21.523Z,59.73
2018-03-15T07:27:48.636Z,59.07
2018-03-15T07:30:14.994Z,59.38
2018-03-15T07:32:41.425Z,59.41
2018-03-15T07:35:07.744Z,59.25
2018-03-15T07:37:34.088Z,58.48
2018-03-15T07:40:00.388Z,58.93
2018-03-15T07:42:26.680Z,59.00
2018-03-15T07:44:53.116Z,59.15
2018-03-15T07:47:19.416Z,58.79
2018-03-15T07:49:45.930Z,57.53
2018-03-15T07:52:12.214Z,57.38
2018-03-15T07:54:38.517Z,57.19
2018-03-15T07:57:04.850Z,57.61
2018-03-15T07:59:31.933Z,57.04
2018-03-15T08:01:58.351Z,56.48
2018-03-15T08:04:24.710Z,55.62
2018-03-15T08:06:51.033Z,55.19
2018-03-15T08:09:17.339Z,54.93
2018-03-15T08:11:44.377Z,55.01
2018-03-15T08:14:11.472Z,54.78
2018-03-15T08:16:37.828Z,54.50
2018-03-15T08:19:04.187Z,53.74
2018-03-15T08:21:31.273Z,54.03
2018-03-15T08:23:57.608Z,54.77
2018-03-15T08:26:24.121Z,54.65
2018-03-15T08:28:50.472Z,54.15
2018-03-15T08:31:16.794Z,54.80
2018-03-15T08:33:43.200Z,54.30
2018-03-15T08:36:10.283Z,53.85
2018-03-15T08:38:36.609Z,53.20
2018-03-15T08:41:02.976Z,53.03
2018-03-15T08:43:29.258Z,52.51
2018-03-15T08:45:55.582Z,52.67
2018-03-15T08:48:22.885Z,52.98
2018-03-15T08:50:49.212Z,52.62
2018-03-15T08:53:15.613Z,52.30
2018-03-15T08:55:41.991Z,52.38
2018-03-15T08:58:08.419Z,52.05
2018-03-15T09:00:34.842Z,50.53
2018-03-15T09:03:01.133Z,48.87
2018-03-15T09:05:27.453Z,48.86
2018-03-15T09:07:53.784Z,48.51
2018-03-15T09:10:20.137Z,49.07
2018-03-15T09:12:46.500Z,48.32
2018-03-15T09:15:12.887Z,46.70
2018-03-15T09:17:40.022Z,45.92
2018-03-15T09:20:07.096Z,45.79
2018-03-15T09:22:33.428Z,45.93
2018-03-15T09:24:59.713Z,46.18
2018-03-15T09:27:26.118Z,45.64
2018-03-15T09:29:52.404Z,45.95
2018-03-15T09:32:18.743Z,45.86
2018-03-15T09:34:45.035Z,45.10
2018-03-15T09:37:11.429Z,45.30
2018-03-15T09:39:37.777Z,45.76
2018-03-15T09:42:04.129Z,45.74
2018-03-15T09:44:30.437Z,46.22
2018-03-15T09:46:56.764Z,47.32
2018-03-15T09:49:23.107Z,46.36
2018-03-15T09:51:50.163Z,45.97
2018-03-15T09:54:16.550Z,45.88
2018-03-15T09:56:43.697Z,45.41
2018-03-15T09:59:10.038Z,45.31
2018-03-15T10:01:36.419Z,44.81
2018-03-15T10:04:02.725Z,44.61
2018-03-15T10:06:29.138Z,44.76
2018-03-15T10:08:55.515Z,45.57
2018-03-15T10:11:21.919Z,44.83
2018-03-15T10:13:48.279Z,45.00
2018-03-15T10:16:14.646Z,44.70
2018-03-15T10:18:40.984Z,44.24
2018-03-15T10:21:07.374Z,43.71
2018-03-15T10:23:33.804Z,44.00
2018-03-15T10:26:00.109Z,43.39
2018-03-15T10:28:26.440Z,43.48
2018-03-15T10:30:52.746Z,42.25
2018-03-15T10:33:25.321Z,41.15
2018-03-15T10:35:51.654Z,41.08
2018-03-15T10:38:18.016Z,41.98
2018-03-15T10:40:44.339Z,42.31
2018-03-15T10:43:10.712Z,42.26
2018-03-15T10:45:37.819Z,41.58
2018-03-15T10:48:04.248Z,40.57
2018-03-15T10:50:30.620Z,40.37
2018-03-15T10:52:56.940Z,39.21
2018-03-15T10:55:23.353Z,39.94
2018-03-15T10:57:49.756Z,39.49
2018-03-15T11:00:16.148Z,38.41
2018-03-15T11:02:46.392Z,38.07
2018-03-15T11:05:19.752Z,37.79
2018-03-15T11:07:52.228Z,37.46
2018-03-15T11:10:18.674Z,36.23
2018-03-15T11:12:45.052Z,35.74
2018-03-15T11:15:11.418Z,35.48
2018-03-15T11:17:37.750Z,35.39
2018-03-15T11:20:04.120Z,36.65
2018-03-15T11:22:30.518Z,36.08
2018-03-15T11:24:57.548Z,36.35
2018-03-15T11:27:23.936Z,36.25
2018-03-15T11:29:51.018Z,35.15
2018-03-15T11:32:17.356Z,33.92
2018-03-15T11:34:43.733Z,33.88
2018-03-15T11:37:10.098Z,34.79
2018-03-15T11:39:36.461Z,34.37
2018-03-15T11:42:02.890Z,34.77
2018-03-15T11:44:29.272Z,33.22
2018-03-15T11:46:55.798Z,32.52
2018-03-15T11:49:25.496Z,31.84
2018-03-15T11:51:52.568Z,28.38
2018-03-15T11:54:19.692Z,27.25
2018-03-15T11:56:46.052Z,29.43
2018-03-15T11:59:13.142Z,29.47
2018-03-15T12:01:39.556Z,29.16
2018-03-15T12:04:06.595Z,30.09
2018-03-15T12:06:32.920Z,27.76
2018-03-15T12:09:00.029Z,22.43
2018-03-15T12:11:26.357Z,23.16
2018-03-15T12:13:52.691Z,24.02
2018-03-15T12:16:19.159Z,23.98
2018-03-15T12:18:45.477Z,20.34
2018-03-15T12:21:11.854Z,17.89
2018-03-15T12:23:38.943Z,16.28
2018-03-15T12:26:05.268Z,15.64
2018-03-15T12:28:31.781Z,15.83
2018-03-15T12:30:58.163Z,15.38
2018-03-15T12:33:24.478Z,14.10
2018-03-15T12:35:51.248Z,12.87
2018-03-15T12:38:17.571Z,12.18
2018-03-15T12:40:43.948Z,12.07
2018-03-15T12:43:10.306Z,14.34
2018-03-15T12:45:36.636Z,17.05
2018-03-15T12:48:03.043Z,19.62
2018-03-15T12:50:29.443Z,18.77
2018-03-15T12:52:55.729Z,15.72
2018-03-15T12:55:22.137Z,14.58
2018-03-15T12:57:48.475Z,12.92
2018-03-15T13:00:14.798Z,13.28
2018-03-15T13:02:41.135Z,14.61
2018-03-15T13:05:07.523Z,13.87
2018-03-15T13:07:33.891Z,13.32
2018-03-15T13:10:00.237Z,13.18
2018-03-15T13:12:26.593Z,11.84
2018-03-15T13:14:52.957Z,10.56
2018-03-15T13:17:19.332Z,10.24
2018-03-15T13:19:45.687Z,10.21
2018-03-15T13:22:12.027Z,10.87
2018-03-15T13:24:38.370Z,11.79
2018-03-15T13:27:04.711Z,13.75
2018-03-15T13:29:31.076Z,14.60
2018-03-15T13:31:57.424Z,15.14
2018-03-15T13:34:23.775Z,14.74
2018-03-15T13:36:50.174Z,16.80
2018-03-15T13:39:16.532Z,17.20
2018-03-15T13:41:42.847Z,16.55
2018-03-15T13:44:09.165Z,18.54
2018-03-15T13:46:36.210Z,20.46
2018-03-15T13:49:02.525Z,20.78
2018-03-15T13:51:29.560Z,18.22
2018-03-15T13:53:55.850Z,16.34
2018-03-15T13:56:22.970Z,15.14
2018-03-15T13:58:50.093Z,12.88
2018-03-15T14:01:16.403Z,14.39
2018-03-15T14:03:42.780Z,17.36
2018-03-15T14:06:09.117Z,19.30
2018-03-15T14:08:43.134Z,20.98
2018-03-15T14:11:09.462Z,21.32
2018-03-15T14:13:35.791Z,22.47
2018-03-15T14:16:02.956Z,21.11
2018-03-15T14:18:29.299Z,19.24
2018-03-15T14:20:55.645Z,17.23
2018-03-15T14:23:21.928Z,15.88
2018-03-15T14:25:49.083Z,15.00
2018-03-15T14:28:15.433Z,13.50
2018-03-15T14:30:41.823Z,13.39
2018-03-15T14:33:08.915Z,12.65
2018-03-15T14:35:35.231Z,12.22
2018-03-15T14:38:01.573Z,10.87
2018-03-15T14:40:27.893Z,11.72
2018-03-15T14:42:54.224Z,11.74
2018-03-15T14:45:20.560Z,12.24
2018-03-15T14:47:46.891Z,11.55
2018-03-15T14:50:13.318Z,10.83
2018-03-15T14:52:40.427Z,10.95
2018-03-15T14:55:06.736Z,11.44
2018-03-15T14:57:33.062Z,12.50
2018-03-15T14:59:59.433Z,12.48
2018-03-15T15:02:25.768Z,11.83
2018-03-15T15:04:52.128Z,12.20
2018-03-15T15:07:18.485Z,11.41
2018-03-15T15:09:44.896Z,11.30
2018-03-15T15:12:11.208Z,11.76
2018-03-15T15:14:37.555Z,13.03
2018-03-15T15:17:03.923Z,13.66
2018-03-15T15:19:30.247Z,13.93
2018-03-15T15:21:56.709Z,14.37
2018-03-15T15:24:23.081Z,16.40
2018-03-15T15:26:50.120Z,17.44
2018-03-15T15:29:17.165Z,18.69
2018-03-15T15:31:44.205Z,19.27
2018-03-15T15:34:10.512Z,19.69
2018-03-15T15:36:36.856Z,19.82
2018-03-15T15:39:03.215Z,20.73
2018-03-15T15:41:30.304Z,20.13
2018-03-15T15:43:56.684Z,20.11
2018-03-15T15:46:23.835Z,20.34
2018-03-15T15:48:50.913Z,19.10
2018-03-15T15:51:17.263Z,18.40
2018-03-15T15:53:43.559Z,18.97
2018-03-15T15:56:10.637Z,21.94
2018-03-15T15:58:37.129Z,25.44
2018-03-15T16:01:04.320Z,28.05
2018-03-15T16:03:30.656Z,28.50
2018-03-15T16:05:57.022Z,30.07
2018-03-15T16:08:23.379Z,31.49
2018-03-15T16:10:50.459Z,32.55
2018-03-15T16:13:16.816Z,34.03
2018-03-15T16:15:43.462Z,35.66
2018-03-15T16:18:10.119Z,36.22
2018-03-15T16:20:36.566Z,36.54
2018-03-15T16:23:03.652Z,37.01
2018-03-15T16:25:30.017Z,36.74
2018-03-15T16:27:56.406Z,36.59
2018-03-15T16:30:22.704Z,36.60
2018-03-15T16:32:49.038Z,37.41
2018-03-15T16:35:15.368Z,37.87
2018-03-15T16:37:41.988Z,38.41
2018-03-15T16:40:08.571Z,38.34
2018-03-15T16:42:34.986Z,38.79
2018-03-15T16:45:02.095Z,38.66
2018-03-15T16:47:29.457Z,39.46
2018-03-15T16:49:56.119Z,39.81
2018-03-15T16:52:22.790Z,39.42
2018-03-15T16:54:49.279Z,39.72
2018-03-15T16:57:15.631Z,40.21
2018-03-15T16:59:42.023Z,39.93
2018-03-15T17:02:08.360Z,39.92
2018-03-15T17:04:34.687Z,39.69
2018-03-15T17:07:01.046Z,39.52
2018-03-15T17:09:27.364Z,39.80
2018-03-15T17:11:53.892Z,39.44
2018-03-15T17:14:20.229Z,39.68
2018-03-15T17:16:46.581Z,39.72
2018-03-15T17:19:12.905Z,39.89
2018-03-15T17:21:39.254Z,39.97
2018-03-15T17:24:05.743Z,40.56
2018-03-15T17:26:32.275Z,40.42
2018-03-15T17:28:58.577Z,40.44
2018-03-15T17:31:24.941Z,40.54
2018-03-15T17:33:51.340Z,40.97
2018-03-15T17:36:17.715Z,41.00
2018-03-15T17:38:44.096Z,41.02
2018-03-15T17:41:11.171Z,41.20
2018-03-15T17:43:37.504Z,41.04
2018-03-15T17:46:03.857Z,41.82
2018-03-15T17:48:30.229Z,41.94
2018-03-15T17:50:56.648Z,42.19
2018-03-15T17:53:23.021Z,42.56
2018-03-15T17:55:49.361Z,42.89
2018-03-15T17:58:16.633Z,43.23
2018-03-15T18:00:42.882Z,42.88
2018-03-15T18:03:09.205Z,43.24
2018-03-15T18:05:35.528Z,43.32
2018-03-15T18:08:03.022Z,43.44
2018-03-15T18:10:32.125Z,43.57
2018-03-15T18:12:59.462Z,43.81
2018-03-15T18:15:25.822Z,44.77
2018-03-15T18:17:52.957Z,51.37
2018-03-15T18:20:19.281Z,52.19
2018-03-15T18:22:45.724Z,53.66
2018-03-15T18:25:12.871Z,54.56
2018-03-15T18:27:39.276Z,55.97
2018-03-15T18:30:05.686Z,56.36
2018-03-15T18:32:32.182Z,56.71
2018-03-15T18:34:59.264Z,57.04
2018-03-15T18:37:25.642Z,57.41
2018-03-15T18:39:52.978Z,57.62
2018-03-15T18:42:20.672Z,58.13
2018-03-15T18:44:47.058Z,58.73
2018-03-15T18:47:13.449Z,59.43
2018-03-15T18:49:39.805Z,59.47
2018-03-15T18:52:06.197Z,59.95
2018-03-15T18:54:32.671Z,59.92
2018-03-15T18:56:59.111Z,60.10
2018-03-15T18:59:25.470Z,60.29
2018-03-15T19:01:52.127Z,60.62
2018-03-15T19:04:18.691Z,60.79
2018-03-15T19:06:46.000Z,60.89
2018-03-15T19:09:12.566Z,61.19
2018-03-15T19:11:38.878Z,61.24
2018-03-15T19:14:05.310Z,61.28
2018-03-15T19:16:31.730Z,60.95
2018-03-15T19:18:58.182Z,61.32
2018-03-15T19:21:24.602Z,61.12
2018-03-15T19:23:50.970Z,61.17
2018-03-15T19:26:18.147Z,61.62
2018-03-15T19:28:44.469Z,61.51
2018-03-15T19:31:25.962Z,61.74
2018-03-15T19:33:52.299Z,61.99
2018-03-15T19:36:18.626Z,62.16
2018-03-15T19:38:45.048Z,62.27
2018-03-15T19:41:11.352Z,62.28
2018-03-15T19:43:37.860Z,62.11
2018-03-15T19:46:04.919Z,62.26
2018-03-15T19:48:31.252Z,62.50
2018-03-15T19:50:57.616Z,62.76
2018-03-15T19:53:24.878Z,62.73
2018-03-15T19:55:52.056Z,62.49
2018-03-15T19:58:18.454Z,62.55
2018-03-15T20:00:45.560Z,62.55
2018-03-15T20:03:11.988Z,62.42
2018-03-15T20:05:38.341Z,62.54
2018-03-15T20:08:04.746Z,62.37
2018-03-15T20:10:31.199Z,62.11
2018-03-15T20:12:57.663Z,62.18
2018-03-15T20:15:24.003Z,62.46
2018-03-15T20:17:51.223Z,62.46
2018-03-15T20:20:17.585Z,62.84
2018-03-15T20:22:50.922Z,62.75
2018-03-15T20:25:21.205Z,62.88
2018-03-15T20:27:54.454Z,62.77
2018-03-15T20:30:20.826Z,62.54
2018-03-15T20:32:54.149Z,62.42
2018-03-15T20:35:21.555Z,62.66
2018-03-15T20:37:47.918Z,62.75
2018-03-15T20:40:21.313Z,63.09
2018-03-15T20:42:53.349Z,63.25
2018-03-15T20:48:28.264Z,63.18
2018-03-15T20:50:54.612Z,63.08
2018-03-15T20:53:23.313Z,62.96
2018-03-15T20:55:49.657Z,63.01
2018-03-15T20:58:16.073Z,63.06
2018-03-15T21:00:42.671Z,63.11
2018-03-15T21:03:09.025Z,62.76
2018-03-15T21:05:35.517Z,62.59
2018-03-15T21:08:02.730Z,62.19
2018-03-15T21:10:29.133Z,62.78
2018-03-15T21:12:55.492Z,62.70
2018-03-15T21:15:21.884Z,62.86
2018-03-15T21:17:48.262Z,62.86
2018-03-15T21:20:14.562Z,62.90
2018-03-15T21:22:40.930Z,62.50
2018-03-15T21:25:07.252Z,62.32
2018-03-15T21:27:33.606Z,62.13
2018-03-15T21:30:00.936Z,62.33
2018-03-15T21:32:27.388Z,62.35
2018-03-15T21:34:53.954Z,62.37
2018-03-15T21:37:21.031Z,62.08
2018-03-15T21:39:47.405Z,62.41
2018-03-15T21:42:13.784Z,62.29
2018-03-15T21:44:40.294Z,62.25
2018-03-15T21:47:06.565Z,61.99
2018-03-15T21:49:32.915Z,62.52
2018-03-15T21:51:59.209Z,62.36
2018-03-15T21:54:25.566Z,62.25
2018-03-15T21:56:51.871Z,62.54
2018-03-15T21:59:18.295Z,62.70
2018-03-15T22:01:44.640Z,62.64
2018-03-15T22:04:10.975Z,62.57
2018-03-15T22:06:37.395Z,62.48
2018-03-15T22:09:03.793Z,62.90
2018-03-15T22:11:30.241Z,63.00
2018-03-15T22:13:56.722Z,63.08
2018-03-15T22:16:23.071Z,63.27
2018-03-15T22:18:49.382Z,63.19
2018-03-15T22:21:15.788Z,63.27
2018-03-15T22:23:42.813Z,63.17
2018-03-15T22:26:09.274Z,63.48
2018-03-15T22:28:35.605Z,63.54
2018-03-15T22:31:02.697Z,63.50
2018-03-15T22:33:29.091Z,63.40
2018-03-15T22:35:55.410Z,63.44
2018-03-15T22:38:22.434Z,64.00
2018-03-15T22:40:48.868Z,64.44
2018-03-15T22:43:15.189Z,64.32
2018-03-15T22:45:42.256Z,64.72
2018-03-15T22:48:09.287Z,64.70
2018-03-15T22:50:35.668Z,64.22
2018-03-15T22:53:01.952Z,64.16
2018-03-15T22:55:28.248Z,64.23
2018-03-15T22:57:54.586Z,64.33
2018-03-15T23:00:20.992Z,64.89
2018-03-15T23:02:47.360Z,64.87
2018-03-15T23:05:13.672Z,65.18
2018-03-15T23:07:39.984Z,65.57
2018-03-15T23:10:06.606Z,65.32
2018-03-15T23:12:33.635Z,65.30
2018-03-15T23:15:00.159Z,65.27
2018-03-15T23:17:26.587Z,65.22
2018-03-15T23:19:52.929Z,65.59
2018-03-15T23:22:19.447Z,65.77
2018-03-15T23:24:45.862Z,65.70
2018-03-15T23:27:12.195Z,65.84
2018-03-15T23:29:38.456Z,65.44
2018-03-15T23:32:04.905Z,65.47
2018-03-15T23:34:31.265Z,65.20
2018-03-15T23:36:57.831Z,65.10
2018-03-15T23:39:24.481Z,64.89
2018-03-15T23:41:50.936Z,64.11
2018-03-15T23:44:17.247Z,63.33
2018-03-15T23:46:44.352Z,62.55
2018-03-15T23:49:10.785Z,62.51
2018-03-15T23:51:37.120Z,62.13
2018-03-15T23:54:03.465Z,62.12
2018-03-15T23:56:29.785Z,62.07
2018-03-15T23:58:56.199Z,62.36
